Accueil
METAR-TAF:

METAR-TAF

Aéroports :

Vitoria, Espagne

Aéroport de Vitoria-Gasteiz

latitude: 42-53N, longitude: 002-43W, altitude: 513 m

Observation

Le bulletin a été fait il y a 29 minutes, à 22:00 UTC
Vent 1 kt de nord
Température 1°C
Humidité 86%
Pression 1022 hPa
Visibilité 10 km ou plus
Quelques nuages à une hauteur de 4000 ft

METAR: LEVT 272200Z 35001KT 9999 FEW040 01/M01 Q1022

Heure: 00:29 (22:29 UTC)

Prévision

Le bulletin a été fait il y a 5 heures et 29 minutes, à 17:00 UTC
Prévision valable du 27 à 18 UTC au 28 à 18 UTC
Vent 3 kt de direction variable
Visibilité 10 km ou plus
Nuages épars à une hauteur de 3000 ft
Temporairement
du 27 à 18 UTC au 27 à 21 UTC
Vent 10 kt de nord/nord-est
Temporairement
du 28 à 12 UTC au 28 à 18 UTC
Vent 10 kt de nord/nord-est

TAF: LEVT 271700Z 2718/2818 VRB03KT 9999 SCT030 TX15/2815Z TNM01/2806Z TEMPO 2718/2721 03010KT TEMPO 2812/2818 02010KT

Observations et prévisions météorologiques de plus de 4000 aéroports (messages METAR et TAF).

Les stations disponibles sont représentées par des disques jaunes et rouges sur la carte.

Passer la souris dessus pour voir le nom de la station.

Cliquer dessus pour voir les observations et prévisions météorologiques.

Pour changer de carte: cliquez sur les boutons verts avec une croix noire pour zoomer, sur le bouton vert avec un tiret pour effectuer un zoom arrière, ou sur les flèches vertes pour les cartes adjacentes.


METAR-TAF: